sensor_id;sensor_type;location;lat;lon;timestamp;P1;durP1;ratioP1;P2;durP2;ratioP2
41043;SDS011;51680;49.806;18.774;2023-08-06T00:00:06;56.00;;;16.30;;
41043;SDS011;51680;49.806;18.774;2023-08-06T00:03:11;87.90;;;15.63;;
41043;SDS011;51680;49.806;18.774;2023-08-06T00:06:12;84.87;;;13.83;;
41043;SDS011;51680;49.806;18.774;2023-08-06T00:09:14;60.15;;;13.77;;
41043;SDS011;51680;49.806;18.774;2023-08-06T00:12:16;71.63;;;13.43;;
41043;SDS011;51680;49.806;18.774;2023-08-06T00:15:18;85.10;;;13.45;;
41043;SDS011;51680;49.806;18.774;2023-08-06T00:18:21;88.57;;;13.57;;
41043;SDS011;51680;49.806;18.774;2023-08-06T00:21:22;151.90;;;13.00;;
41043;SDS011;51680;49.806;18.774;2023-08-06T00:24:24;113.38;;;14.95;;
41043;SDS011;51680;49.806;18.774;2023-08-06T00:27:26;33.67;;;13.93;;
41043;SDS011;51680;49.806;18.774;2023-08-06T00:30:27;176.43;;;13.75;;
41043;SDS011;51680;49.806;18.774;2023-08-06T00:33:31;33.40;;;12.90;;
41043;SDS011;51680;49.806;18.774;2023-08-06T00:36:32;26.17;;;13.40;;
41043;SDS011;51680;49.806;18.774;2023-08-06T00:39:35;133.18;;;13.02;;
41043;SDS011;51680;49.806;18.774;2023-08-06T00:42:36;86.15;;;12.65;;
41043;SDS011;51680;49.806;18.774;2023-08-06T00:45:38;18.35;;;10.93;;
41043;SDS011;51680;49.806;18.774;2023-08-06T00:48:41;19.48;;;11.60;;
41043;SDS011;51680;49.806;18.774;2023-08-06T00:51:44;19.65;;;10.02;;
41043;SDS011;51680;49.806;18.774;2023-08-06T00:54:46;11.57;;;8.55;;
41043;SDS011;51680;49.806;18.774;2023-08-06T00:57:48;60.78;;;9.30;;
41043;SDS011;51680;49.806;18.774;2023-08-06T01:00:51;10.43;;;7.78;;
41043;SDS011;51680;49.806;18.774;2023-08-06T01:03:54;11.15;;;7.75;;
41043;SDS011;51680;49.806;18.774;2023-08-06T01:07:02;13.00;;;6.40;;
41043;SDS011;51680;49.806;18.774;2023-08-06T01:10:16;37.42;;;5.38;;
41043;SDS011;51680;49.806;18.774;2023-08-06T01:13:33;13.82;;;3.28;;
41043;SDS011;51680;49.806;18.774;2023-08-06T01:16:43;12.88;;;1.95;;
41043;SDS011;51680;49.806;18.774;2023-08-06T01:19:46;19.95;;;1.65;;
41043;SDS011;51680;49.806;18.774;2023-08-06T01:22:49;27.63;;;1.50;;
41043;SDS011;51680;49.806;18.774;2023-08-06T01:25:53;6.33;;;0.87;;
41043;SDS011;51680;49.806;18.774;2023-08-06T01:29:03;1.85;;;0.70;;
41043;SDS011;51680;49.806;18.774;2023-08-06T01:32:10;20.38;;;1.23;;
41043;SDS011;51680;49.806;18.774;2023-08-06T01:35:14;20.00;;;1.30;;
41043;SDS011;51680;49.806;18.774;2023-08-06T01:38:18;6.07;;;1.13;;
41043;SDS011;51680;49.806;18.774;2023-08-06T01:41:20;31.10;;;1.85;;
41043;SDS011;51680;49.806;18.774;2023-08-06T01:44:22;5.95;;;1.00;;
41043;SDS011;51680;49.806;18.774;2023-08-06T01:47:24;7.95;;;1.15;;
41043;SDS011;51680;49.806;18.774;2023-08-06T01:50:26;25.98;;;1.70;;
41043;SDS011;51680;49.806;18.774;2023-08-06T01:53:29;7.43;;;1.00;;
41043;SDS011;51680;49.806;18.774;2023-08-06T01:56:31;1.67;;;0.93;;
41043;SDS011;51680;49.806;18.774;2023-08-06T01:59:33;2.05;;;0.90;;
41043;SDS011;51680;49.806;18.774;2023-08-06T02:02:35;4.55;;;1.17;;
41043;SDS011;51680;49.806;18.774;2023-08-06T02:05:37;2.45;;;1.17;;
41043;SDS011;51680;49.806;18.774;2023-08-06T02:08:42;5.75;;;1.58;;
41043;SDS011;51680;49.806;18.774;2023-08-06T02:11:44;3.33;;;1.40;;
41043;SDS011;51680;49.806;18.774;2023-08-06T02:14:46;3.63;;;1.80;;
41043;SDS011;51680;49.806;18.774;2023-08-06T02:17:47;5.07;;;1.88;;
41043;SDS011;51680;49.806;18.774;2023-08-06T02:20:54;16.85;;;2.00;;
41043;SDS011;51680;49.806;18.774;2023-08-06T02:23:59;34.88;;;2.80;;
41043;SDS011;51680;49.806;18.774;2023-08-06T02:27:01;4.78;;;2.10;;
41043;SDS011;51680;49.806;18.774;2023-08-06T02:30:03;5.50;;;1.92;;
41043;SDS011;51680;49.806;18.774;2023-08-06T02:33:06;4.05;;;2.10;;
41043;SDS011;51680;49.806;18.774;2023-08-06T02:36:08;10.13;;;1.90;;
41043;SDS011;51680;49.806;18.774;2023-08-06T02:39:11;18.83;;;2.05;;
41043;SDS011;51680;49.806;18.774;2023-08-06T02:42:12;10.27;;;2.60;;
41043;SDS011;51680;49.806;18.774;2023-08-06T02:45:14;7.45;;;2.00;;
41043;SDS011;51680;49.806;18.774;2023-08-06T02:48:16;4.70;;;2.15;;
41043;SDS011;51680;49.806;18.774;2023-08-06T02:51:18;5.45;;;2.33;;
41043;SDS011;51680;49.806;18.774;2023-08-06T02:54:22;3.10;;;2.28;;
41043;SDS011;51680;49.806;18.774;2023-08-06T02:57:23;8.13;;;2.40;;
41043;SDS011;51680;49.806;18.774;2023-08-06T03:00:27;5.50;;;2.20;;
41043;SDS011;51680;49.806;18.774;2023-08-06T03:03:29;39.92;;;2.85;;
41043;SDS011;51680;49.806;18.774;2023-08-06T03:06:33;7.28;;;2.08;;
41043;SDS011;51680;49.806;18.774;2023-08-06T03:09:38;7.50;;;2.28;;
41043;SDS011;51680;49.806;18.774;2023-08-06T03:12:40;2.60;;;1.63;;
41043;SDS011;51680;49.806;18.774;2023-08-06T03:15:42;5.82;;;1.90;;
41043;SDS011;51680;49.806;18.774;2023-08-06T03:21:48;9.82;;;1.98;;
41043;SDS011;51680;49.806;18.774;2023-08-06T03:24:52;3.55;;;1.77;;
41043;SDS011;51680;49.806;18.774;2023-08-06T03:27:56;5.03;;;1.90;;
41043;SDS011;51680;49.806;18.774;2023-08-06T03:30:59;4.15;;;1.73;;
41043;SDS011;51680;49.806;18.774;2023-08-06T03:34:04;4.55;;;1.80;;
41043;SDS011;51680;49.806;18.774;2023-08-06T03:37:07;4.82;;;1.80;;
41043;SDS011;51680;49.806;18.774;2023-08-06T03:40:10;2.30;;;1.60;;
41043;SDS011;51680;49.806;18.774;2023-08-06T03:43:12;6.15;;;1.67;;
41043;SDS011;51680;49.806;18.774;2023-08-06T03:46:15;15.48;;;1.85;;
41043;SDS011;51680;49.806;18.774;2023-08-06T03:49:18;2.17;;;1.55;;
41043;SDS011;51680;49.806;18.774;2023-08-06T03:52:20;3.42;;;0.93;;
41043;SDS011;51680;49.806;18.774;2023-08-06T03:55:23;3.25;;;0.95;;
41043;SDS011;51680;49.806;18.774;2023-08-06T03:58:26;2.30;;;0.70;;
41043;SDS011;51680;49.806;18.774;2023-08-06T04:01:28;1.20;;;0.73;;
41043;SDS011;51680;49.806;18.774;2023-08-06T04:04:30;12.52;;;0.90;;
41043;SDS011;51680;49.806;18.774;2023-08-06T04:07:32;7.70;;;0.50;;
41043;SDS011;51680;49.806;18.774;2023-08-06T04:10:35;1.77;;;0.30;;
41043;SDS011;51680;49.806;18.774;2023-08-06T04:13:37;8.13;;;0.63;;
41043;SDS011;51680;49.806;18.774;2023-08-06T04:16:38;1.38;;;0.35;;
41043;SDS011;51680;49.806;18.774;2023-08-06T04:19:40;55.47;;;1.95;;
41043;SDS011;51680;49.806;18.774;2023-08-06T04:22:42;20.10;;;0.70;;
41043;SDS011;51680;49.806;18.774;2023-08-06T04:25:45;9.70;;;0.60;;
41043;SDS011;51680;49.806;18.774;2023-08-06T04:28:47;7.35;;;0.55;;
41043;SDS011;51680;49.806;18.774;2023-08-06T04:31:50;2.03;;;0.40;;
41043;SDS011;51680;49.806;18.774;2023-08-06T04:34:51;8.18;;;0.63;;
41043;SDS011;51680;49.806;18.774;2023-08-06T04:37:53;0.55;;;0.28;;
41043;SDS011;51680;49.806;18.774;2023-08-06T04:40:57;1.27;;;0.45;;
41043;SDS011;51680;49.806;18.774;2023-08-06T04:43:59;1.30;;;0.30;;
41043;SDS011;51680;49.806;18.774;2023-08-06T04:47:01;5.22;;;0.32;;
41043;SDS011;51680;49.806;18.774;2023-08-06T04:50:03;1.40;;;0.60;;
41043;SDS011;51680;49.806;18.774;2023-08-06T04:53:05;2.42;;;0.47;;
41043;SDS011;51680;49.806;18.774;2023-08-06T04:56:09;1.70;;;0.30;;
41043;SDS011;51680;49.806;18.774;2023-08-06T04:59:10;2.20;;;0.30;;
41043;SDS011;51680;49.806;18.774;2023-08-06T05:02:12;2.90;;;0.40;;
41043;SDS011;51680;49.806;18.774;2023-08-06T05:05:14;14.52;;;0.68;;
41043;SDS011;51680;49.806;18.774;2023-08-06T05:08:16;0.52;;;0.28;;
41043;SDS011;51680;49.806;18.774;2023-08-06T05:11:19;3.70;;;0.40;;
41043;SDS011;51680;49.806;18.774;2023-08-06T05:14:21;17.03;;;0.93;;
41043;SDS011;51680;49.806;18.774;2023-08-06T05:17:22;0.50;;;0.20;;
41043;SDS011;51680;49.806;18.774;2023-08-06T05:20:24;7.57;;;0.55;;
41043;SDS011;51680;49.806;18.774;2023-08-06T05:23:26;6.90;;;0.40;;
41043;SDS011;51680;49.806;18.774;2023-08-06T05:26:29;0.20;;;0.10;;
41043;SDS011;51680;49.806;18.774;2023-08-06T05:29:30;0.35;;;0.10;;
41043;SDS011;51680;49.806;18.774;2023-08-06T05:32:32;3.42;;;0.20;;
41043;SDS011;51680;49.806;18.774;2023-08-06T05:35:34;2.25;;;0.15;;
41043;SDS011;51680;49.806;18.774;2023-08-06T05:38:36;0.22;;;0.10;;
41043;SDS011;51680;49.806;18.774;2023-08-06T05:41:39;0.20;;;0.10;;
41043;SDS011;51680;49.806;18.774;2023-08-06T05:44:40;0.43;;;0.20;;
41043;SDS011;51680;49.806;18.774;2023-08-06T05:47:42;2.90;;;0.15;;
41043;SDS011;51680;49.806;18.774;2023-08-06T05:50:44;0.10;;;0.00;;
41043;SDS011;51680;49.806;18.774;2023-08-06T05:53:46;1.55;;;0.10;;
41043;SDS011;51680;49.806;18.774;2023-08-06T05:56:51;0.28;;;0.00;;
41043;SDS011;51680;49.806;18.774;2023-08-06T05:59:52;0.63;;;0.10;;
41043;SDS011;51680;49.806;18.774;2023-08-06T06:02:54;0.20;;;0.00;;
41043;SDS011;51680;49.806;18.774;2023-08-06T06:05:56;1.15;;;0.10;;
41043;SDS011;51680;49.806;18.774;2023-08-06T06:08:57;0.20;;;0.10;;
41043;SDS011;51680;49.806;18.774;2023-08-06T06:12:00;1.58;;;0.15;;
41043;SDS011;51680;49.806;18.774;2023-08-06T06:15:02;1.70;;;0.10;;
41043;SDS011;51680;49.806;18.774;2023-08-06T06:18:04;1.00;;;0.10;;
41043;SDS011;51680;49.806;18.774;2023-08-06T06:21:06;4.32;;;0.20;;
41043;SDS011;51680;49.806;18.774;2023-08-06T06:24:08;1.52;;;0.15;;
41043;SDS011;51680;49.806;18.774;2023-08-06T06:27:11;3.72;;;0.20;;
41043;SDS011;51680;49.806;18.774;2023-08-06T06:30:13;0.30;;;0.00;;
41043;SDS011;51680;49.806;18.774;2023-08-06T06:33:14;0.00;;;0.00;;
41043;SDS011;51680;49.806;18.774;2023-08-06T06:36:16;0.85;;;0.10;;
41043;SDS011;51680;49.806;18.774;2023-08-06T06:39:18;0.82;;;0.10;;
41043;SDS011;51680;49.806;18.774;2023-08-06T06:42:21;0.65;;;0.00;;
41043;SDS011;51680;49.806;18.774;2023-08-06T06:45:25;0.85;;;0.05;;
41043;SDS011;51680;49.806;18.774;2023-08-06T06:48:27;1.85;;;0.10;;
41043;SDS011;51680;49.806;18.774;2023-08-06T06:51:30;0.32;;;0.10;;
41043;SDS011;51680;49.806;18.774;2023-08-06T06:54:33;0.20;;;0.00;;
41043;SDS011;51680;49.806;18.774;2023-08-06T06:57:36;0.10;;;0.00;;
41043;SDS011;51680;49.806;18.774;2023-08-06T07:00:38;0.57;;;0.10;;
41043;SDS011;51680;49.806;18.774;2023-08-06T07:03:40;1.38;;;0.03;;
41043;SDS011;51680;49.806;18.774;2023-08-06T07:06:42;1.95;;;0.47;;
41043;SDS011;51680;49.806;18.774;2023-08-06T07:09:44;0.45;;;0.10;;
41043;SDS011;51680;49.806;18.774;2023-08-06T07:12:47;1.80;;;0.15;;
41043;SDS011;51680;49.806;18.774;2023-08-06T07:15:48;1.00;;;0.20;;
41043;SDS011;51680;49.806;18.774;2023-08-06T07:18:50;0.50;;;0.10;;
41043;SDS011;51680;49.806;18.774;2023-08-06T07:21:52;1.10;;;0.10;;
41043;SDS011;51680;49.806;18.774;2023-08-06T07:24:55;2.50;;;0.10;;
41043;SDS011;51680;49.806;18.774;2023-08-06T07:27:59;1.08;;;0.10;;
41043;SDS011;51680;49.806;18.774;2023-08-06T07:31:02;1.85;;;0.10;;
41043;SDS011;51680;49.806;18.774;2023-08-06T07:34:04;2.38;;;0.20;;
41043;SDS011;51680;49.806;18.774;2023-08-06T07:37:06;1.65;;;0.00;;
41043;SDS011;51680;49.806;18.774;2023-08-06T07:40:08;0.25;;;0.08;;
41043;SDS011;51680;49.806;18.774;2023-08-06T07:43:12;0.63;;;0.10;;
41043;SDS011;51680;49.806;18.774;2023-08-06T07:46:13;0.43;;;0.10;;
41043;SDS011;51680;49.806;18.774;2023-08-06T07:49:15;0.55;;;0.30;;
41043;SDS011;51680;49.806;18.774;2023-08-06T07:52:17;2.10;;;0.93;;
41043;SDS011;51680;49.806;18.774;2023-08-06T07:55:19;2.83;;;1.45;;
41043;SDS011;51680;49.806;18.774;2023-08-06T07:58:23;2.08;;;1.10;;
41043;SDS011;51680;49.806;18.774;2023-08-06T08:01:25;3.00;;;0.80;;
41043;SDS011;51680;49.806;18.774;2023-08-06T08:04:27;0.60;;;0.20;;
41043;SDS011;51680;49.806;18.774;2023-08-06T08:07:28;0.20;;;0.10;;
41043;SDS011;51680;49.806;18.774;2023-08-06T08:10:31;0.52;;;0.10;;
41043;SDS011;51680;49.806;18.774;2023-08-06T08:13:34;0.68;;;0.20;;
41043;SDS011;51680;49.806;18.774;2023-08-06T08:16:36;2.30;;;0.30;;
41043;SDS011;51680;49.806;18.774;2023-08-06T08:19:37;0.82;;;0.10;;
41043;SDS011;51680;49.806;18.774;2023-08-06T08:22:41;1.92;;;0.28;;
41043;SDS011;51680;49.806;18.774;2023-08-06T08:25:43;2.35;;;0.30;;
41043;SDS011;51680;49.806;18.774;2023-08-06T08:28:46;0.73;;;0.22;;
41043;SDS011;51680;49.806;18.774;2023-08-06T08:31:48;0.32;;;0.10;;
41043;SDS011;51680;49.806;18.774;2023-08-06T08:34:50;2.65;;;0.20;;
41043;SDS011;51680;49.806;18.774;2023-08-06T08:37:52;2.88;;;0.60;;
41043;SDS011;51680;49.806;18.774;2023-08-06T08:40:54;0.90;;;0.20;;
41043;SDS011;51680;49.806;18.774;2023-08-06T08:43:58;1.40;;;0.50;;
41043;SDS011;51680;49.806;18.774;2023-08-06T08:47:00;3.33;;;0.70;;
41043;SDS011;51680;49.806;18.774;2023-08-06T08:50:02;0.90;;;0.30;;
41043;SDS011;51680;49.806;18.774;2023-08-06T08:53:07;1.35;;;0.60;;
41043;SDS011;51680;49.806;18.774;2023-08-06T08:56:11;0.38;;;0.20;;
41043;SDS011;51680;49.806;18.774;2023-08-06T08:59:16;1.90;;;0.60;;
41043;SDS011;51680;49.806;18.774;2023-08-06T09:02:18;2.70;;;0.40;;
41043;SDS011;51680;49.806;18.774;2023-08-06T09:05:22;0.52;;;0.20;;
41043;SDS011;51680;49.806;18.774;2023-08-06T09:08:30;0.38;;;0.10;;
41043;SDS011;51680;49.806;18.774;2023-08-06T09:11:36;1.77;;;0.10;;
41043;SDS011;51680;49.806;18.774;2023-08-06T09:14:42;0.10;;;0.10;;
41043;SDS011;51680;49.806;18.774;2023-08-06T09:17:44;0.60;;;0.10;;
41043;SDS011;51680;49.806;18.774;2023-08-06T09:20:48;0.32;;;0.10;;
41043;SDS011;51680;49.806;18.774;2023-08-06T09:26:52;0.93;;;0.20;;
41043;SDS011;51680;49.806;18.774;2023-08-06T09:29:55;0.90;;;0.20;;
41043;SDS011;51680;49.806;18.774;2023-08-06T09:32:57;0.47;;;0.05;;
41043;SDS011;51680;49.806;18.774;2023-08-06T09:36:04;2.35;;;0.30;;
41043;SDS011;51680;49.806;18.774;2023-08-06T09:39:12;2.13;;;0.80;;
41043;SDS011;51680;49.806;18.774;2023-08-06T09:42:15;1.30;;;0.50;;
41043;SDS011;51680;49.806;18.774;2023-08-06T09:45:18;1.58;;;0.70;;
41043;SDS011;51680;49.806;18.774;2023-08-06T09:48:22;1.90;;;0.40;;
41043;SDS011;51680;49.806;18.774;2023-08-06T09:54:28;0.95;;;0.38;;
41043;SDS011;51680;49.806;18.774;2023-08-06T09:57:30;0.98;;;0.20;;
41043;SDS011;51680;49.806;18.774;2023-08-06T10:00:34;0.95;;;0.28;;
41043;SDS011;51680;49.806;18.774;2023-08-06T10:03:36;1.05;;;0.30;;
41043;SDS011;51680;49.806;18.774;2023-08-06T10:06:38;1.10;;;0.30;;
41043;SDS011;51680;49.806;18.774;2023-08-06T10:09:40;1.05;;;0.20;;
41043;SDS011;51680;49.806;18.774;2023-08-06T10:12:42;0.73;;;0.28;;
41043;SDS011;51680;49.806;18.774;2023-08-06T10:15:49;1.60;;;0.20;;
41043;SDS011;51680;49.806;18.774;2023-08-06T10:18:52;0.70;;;0.10;;
41043;SDS011;51680;49.806;18.774;2023-08-06T10:25:17;0.90;;;0.10;;
41043;SDS011;51680;49.806;18.774;2023-08-06T10:28:18;0.57;;;0.10;;
41043;SDS011;51680;49.806;18.774;2023-08-06T10:31:21;0.98;;;0.20;;
41043;SDS011;51680;49.806;18.774;2023-08-06T10:34:56;2.38;;;0.20;;
41043;SDS011;51680;49.806;18.774;2023-08-06T10:37:59;1.25;;;0.10;;
41043;SDS011;51680;49.806;18.774;2023-08-06T10:41:05;0.20;;;0.10;;
41043;SDS011;51680;49.806;18.774;2023-08-06T10:44:06;0.60;;;0.20;;
41043;SDS011;51680;49.806;18.774;2023-08-06T10:50:29;0.63;;;0.17;;
41043;SDS011;51680;49.806;18.774;2023-08-06T10:53:32;0.10;;;0.00;;
41043;SDS011;51680;49.806;18.774;2023-08-06T10:56:39;0.63;;;0.15;;
41043;SDS011;51680;49.806;18.774;2023-08-06T10:59:41;0.25;;;0.10;;
41043;SDS011;51680;49.806;18.774;2023-08-06T11:02:45;0.73;;;0.10;;
41043;SDS011;51680;49.806;18.774;2023-08-06T11:05:48;0.82;;;0.20;;
41043;SDS011;51680;49.806;18.774;2023-08-06T11:08:52;1.88;;;0.20;;
41043;SDS011;51680;49.806;18.774;2023-08-06T11:11:54;0.82;;;0.30;;
41043;SDS011;51680;49.806;18.774;2023-08-06T11:14:56;0.15;;;0.00;;
41043;SDS011;51680;49.806;18.774;2023-08-06T11:17:59;1.00;;;0.20;;
41043;SDS011;51680;49.806;18.774;2023-08-06T11:21:03;0.55;;;0.20;;
41043;SDS011;51680;49.806;18.774;2023-08-06T11:24:04;3.70;;;2.20;;
41043;SDS011;51680;49.806;18.774;2023-08-06T11:27:11;0.95;;;0.20;;
41043;SDS011;51680;49.806;18.774;2023-08-06T11:30:14;2.15;;;1.50;;
41043;SDS011;51680;49.806;18.774;2023-08-06T11:33:20;2.03;;;0.82;;
41043;SDS011;51680;49.806;18.774;2023-08-06T11:36:29;1.30;;;0.40;;
41043;SDS011;51680;49.806;18.774;2023-08-06T11:39:32;0.70;;;0.30;;
41043;SDS011;51680;49.806;18.774;2023-08-06T11:42:34;1.40;;;0.50;;
41043;SDS011;51680;49.806;18.774;2023-08-06T11:45:37;1.85;;;0.30;;
41043;SDS011;51680;49.806;18.774;2023-08-06T11:48:51;4.00;;;1.10;;
41043;SDS011;51680;49.806;18.774;2023-08-06T11:51:53;1.15;;;0.32;;
41043;SDS011;51680;49.806;18.774;2023-08-06T11:55:02;0.80;;;0.45;;
41043;SDS011;51680;49.806;18.774;2023-08-06T11:58:07;6.32;;;1.60;;
41043;SDS011;51680;49.806;18.774;2023-08-06T12:01:08;5.90;;;1.27;;
41043;SDS011;51680;49.806;18.774;2023-08-06T12:04:11;3.05;;;0.65;;
41043;SDS011;51680;49.806;18.774;2023-08-06T12:07:15;2.80;;;0.50;;
41043;SDS011;51680;49.806;18.774;2023-08-06T12:10:17;2.97;;;1.10;;
41043;SDS011;51680;49.806;18.774;2023-08-06T12:13:20;1.17;;;0.57;;
41043;SDS011;51680;49.806;18.774;2023-08-06T12:16:22;0.90;;;0.20;;
41043;SDS011;51680;49.806;18.774;2023-08-06T12:19:25;2.30;;;0.50;;
41043;SDS011;51680;49.806;18.774;2023-08-06T12:22:27;2.70;;;0.90;;
41043;SDS011;51680;49.806;18.774;2023-08-06T12:25:31;3.13;;;1.35;;
41043;SDS011;51680;49.806;18.774;2023-08-06T12:28:33;1.30;;;0.60;;
41043;SDS011;51680;49.806;18.774;2023-08-06T12:31:35;1.70;;;0.68;;
41043;SDS011;51680;49.806;18.774;2023-08-06T12:34:38;1.77;;;0.60;;
41043;SDS011;51680;49.806;18.774;2023-08-06T12:37:40;1.55;;;0.40;;
41043;SDS011;51680;49.806;18.774;2023-08-06T12:40:44;0.63;;;0.20;;
41043;SDS011;51680;49.806;18.774;2023-08-06T12:43:45;2.85;;;0.93;;
41043;SDS011;51680;49.806;18.774;2023-08-06T12:46:47;1.25;;;0.50;;
41043;SDS011;51680;49.806;18.774;2023-08-06T12:49:50;7.93;;;0.93;;
41043;SDS011;51680;49.806;18.774;2023-08-06T12:52:52;0.90;;;0.40;;
41043;SDS011;51680;49.806;18.774;2023-08-06T12:55:54;1.35;;;0.57;;
41043;SDS011;51680;49.806;18.774;2023-08-06T13:02:00;2.38;;;0.90;;
41043;SDS011;51680;49.806;18.774;2023-08-06T13:05:04;2.83;;;1.05;;
41043;SDS011;51680;49.806;18.774;2023-08-06T13:08:06;2.97;;;1.20;;
41043;SDS011;51680;49.806;18.774;2023-08-06T13:11:08;3.20;;;0.75;;
41043;SDS011;51680;49.806;18.774;2023-08-06T13:14:10;0.82;;;0.40;;
41043;SDS011;51680;49.806;18.774;2023-08-06T13:17:13;4.65;;;0.80;;
41043;SDS011;51680;49.806;18.774;2023-08-06T13:20:16;1.27;;;0.40;;
41043;SDS011;51680;49.806;18.774;2023-08-06T13:23:19;3.13;;;1.08;;
41043;SDS011;51680;49.806;18.774;2023-08-06T13:26:21;2.88;;;0.40;;
41043;SDS011;51680;49.806;18.774;2023-08-06T13:29:23;3.60;;;1.25;;
41043;SDS011;51680;49.806;18.774;2023-08-06T13:32:25;1.95;;;0.43;;
41043;SDS011;51680;49.806;18.774;2023-08-06T13:35:29;5.82;;;0.52;;
41043;SDS011;51680;49.806;18.774;2023-08-06T13:38:30;3.75;;;2.45;;
41043;SDS011;51680;49.806;18.774;2023-08-06T13:41:32;1.98;;;0.75;;
41043;SDS011;51680;49.806;18.774;2023-08-06T13:44:34;3.28;;;0.90;;
41043;SDS011;51680;49.806;18.774;2023-08-06T13:47:36;1.05;;;0.30;;
41043;SDS011;51680;49.806;18.774;2023-08-06T13:50:39;2.05;;;0.60;;
41043;SDS011;51680;49.806;18.774;2023-08-06T13:53:41;4.17;;;0.90;;
41043;SDS011;51680;49.806;18.774;2023-08-06T13:56:43;2.00;;;0.50;;
41043;SDS011;51680;49.806;18.774;2023-08-06T13:59:45;0.95;;;0.35;;
41043;SDS011;51680;49.806;18.774;2023-08-06T14:02:46;0.80;;;0.20;;
41043;SDS011;51680;49.806;18.774;2023-08-06T14:05:50;1.50;;;0.30;;
41043;SDS011;51680;49.806;18.774;2023-08-06T14:08:51;3.45;;;1.10;;
41043;SDS011;51680;49.806;18.774;2023-08-06T14:11:53;1.08;;;0.47;;
41043;SDS011;51680;49.806;18.774;2023-08-06T14:14:55;2.30;;;0.40;;
41043;SDS011;51680;49.806;18.774;2023-08-06T14:17:57;2.70;;;1.15;;
41043;SDS011;51680;49.806;18.774;2023-08-06T14:21:00;3.25;;;1.10;;
41043;SDS011;51680;49.806;18.774;2023-08-06T14:24:01;4.17;;;1.30;;
41043;SDS011;51680;49.806;18.774;2023-08-06T14:27:04;3.13;;;0.90;;
41043;SDS011;51680;49.806;18.774;2023-08-06T14:30:06;2.58;;;0.82;;
41043;SDS011;51680;49.806;18.774;2023-08-06T14:33:09;2.83;;;0.98;;
41043;SDS011;51680;49.806;18.774;2023-08-06T14:36:12;3.05;;;0.90;;
41043;SDS011;51680;49.806;18.774;2023-08-06T14:39:13;1.75;;;0.93;;
41043;SDS011;51680;49.806;18.774;2023-08-06T14:42:15;3.55;;;0.95;;
41043;SDS011;51680;49.806;18.774;2023-08-06T14:45:17;4.30;;;1.13;;
41043;SDS011;51680;49.806;18.774;2023-08-06T14:48:19;2.05;;;0.70;;
41043;SDS011;51680;49.806;18.774;2023-08-06T14:51:22;2.78;;;0.80;;
41043;SDS011;51680;49.806;18.774;2023-08-06T14:54:24;2.22;;;0.60;;
41043;SDS011;51680;49.806;18.774;2023-08-06T14:57:25;1.83;;;0.63;;
41043;SDS011;51680;49.806;18.774;2023-08-06T15:00:28;2.20;;;0.40;;
41043;SDS011;51680;49.806;18.774;2023-08-06T15:03:30;2.17;;;0.50;;
41043;SDS011;51680;49.806;18.774;2023-08-06T15:06:33;3.85;;;0.60;;
41043;SDS011;51680;49.806;18.774;2023-08-06T15:09:35;1.73;;;0.40;;
41043;SDS011;51680;49.806;18.774;2023-08-06T15:12:37;1.13;;;0.30;;
41043;SDS011;51680;49.806;18.774;2023-08-06T15:15:39;1.48;;;0.60;;
41043;SDS011;51680;49.806;18.774;2023-08-06T15:18:42;1.33;;;0.57;;
41043;SDS011;51680;49.806;18.774;2023-08-06T15:21:46;1.77;;;0.50;;
41043;SDS011;51680;49.806;18.774;2023-08-06T15:24:48;1.30;;;0.50;;
41043;SDS011;51680;49.806;18.774;2023-08-06T15:27:49;1.17;;;0.40;;
41043;SDS011;51680;49.806;18.774;2023-08-06T15:30:51;2.13;;;0.63;;
41043;SDS011;51680;49.806;18.774;2023-08-06T15:33:53;1.95;;;0.30;;
41043;SDS011;51680;49.806;18.774;2023-08-06T15:36:56;1.40;;;0.60;;
41043;SDS011;51680;49.806;18.774;2023-08-06T15:39:58;4.03;;;1.05;;
41043;SDS011;51680;49.806;18.774;2023-08-06T15:43:00;3.72;;;0.80;;
41043;SDS011;51680;49.806;18.774;2023-08-06T15:46:02;1.38;;;0.65;;
41043;SDS011;51680;49.806;18.774;2023-08-06T15:49:04;4.18;;;0.70;;
41043;SDS011;51680;49.806;18.774;2023-08-06T15:52:07;1.23;;;0.22;;
41043;SDS011;51680;49.806;18.774;2023-08-06T15:55:09;1.10;;;0.50;;
41043;SDS011;51680;49.806;18.774;2023-08-06T15:58:11;1.95;;;1.27;;
41043;SDS011;51680;49.806;18.774;2023-08-06T16:01:12;3.15;;;0.90;;
41043;SDS011;51680;49.806;18.774;2023-08-06T16:04:14;2.05;;;0.50;;
41043;SDS011;51680;49.806;18.774;2023-08-06T16:07:18;3.85;;;0.20;;
41043;SDS011;51680;49.806;18.774;2023-08-06T16:10:20;1.98;;;0.70;;
41043;SDS011;51680;49.806;18.774;2023-08-06T16:13:22;0.68;;;0.30;;
41043;SDS011;51680;49.806;18.774;2023-08-06T16:16:23;2.20;;;0.20;;
41043;SDS011;51680;49.806;18.774;2023-08-06T16:19:25;4.80;;;1.85;;
41043;SDS011;51680;49.806;18.774;2023-08-06T16:22:28;4.07;;;1.92;;
41043;SDS011;51680;49.806;18.774;2023-08-06T16:25:30;2.40;;;1.20;;
41043;SDS011;51680;49.806;18.774;2023-08-06T16:28:32;1.67;;;0.70;;
41043;SDS011;51680;49.806;18.774;2023-08-06T16:31:34;2.20;;;0.60;;
41043;SDS011;51680;49.806;18.774;2023-08-06T16:34:35;1.42;;;0.60;;
41043;SDS011;51680;49.806;18.774;2023-08-06T16:37:40;2.10;;;0.75;;
41043;SDS011;51680;49.806;18.774;2023-08-06T16:40:42;3.03;;;1.10;;
41043;SDS011;51680;49.806;18.774;2023-08-06T16:43:52;3.42;;;0.98;;
41043;SDS011;51680;49.806;18.774;2023-08-06T16:46:54;1.15;;;0.40;;
41043;SDS011;51680;49.806;18.774;2023-08-06T16:49:55;1.17;;;0.55;;
41043;SDS011;51680;49.806;18.774;2023-08-06T16:52:58;1.27;;;0.50;;
41043;SDS011;51680;49.806;18.774;2023-08-06T16:56:00;2.80;;;0.90;;
41043;SDS011;51680;49.806;18.774;2023-08-06T16:59:02;2.40;;;0.63;;
41043;SDS011;51680;49.806;18.774;2023-08-06T17:02:05;2.55;;;0.85;;
41043;SDS011;51680;49.806;18.774;2023-08-06T17:05:07;2.80;;;0.90;;
41043;SDS011;51680;49.806;18.774;2023-08-06T17:08:10;2.13;;;0.77;;
41043;SDS011;51680;49.806;18.774;2023-08-06T17:11:12;3.25;;;0.55;;
41043;SDS011;51680;49.806;18.774;2023-08-06T17:14:14;3.17;;;0.80;;
41043;SDS011;51680;49.806;18.774;2023-08-06T17:17:16;2.72;;;1.50;;
41043;SDS011;51680;49.806;18.774;2023-08-06T17:20:18;5.55;;;2.28;;
41043;SDS011;51680;49.806;18.774;2023-08-06T17:23:21;2.58;;;1.30;;
41043;SDS011;51680;49.806;18.774;2023-08-06T17:26:23;1.75;;;0.90;;
41043;SDS011;51680;49.806;18.774;2023-08-06T17:29:25;3.88;;;0.82;;
41043;SDS011;51680;49.806;18.774;2023-08-06T17:32:27;2.35;;;0.88;;
41043;SDS011;51680;49.806;18.774;2023-08-06T17:35:29;1.17;;;0.70;;
41043;SDS011;51680;49.806;18.774;2023-08-06T17:38:33;1.77;;;0.60;;
41043;SDS011;51680;49.806;18.774;2023-08-06T17:41:35;2.87;;;0.67;;
41043;SDS011;51680;49.806;18.774;2023-08-06T17:44:37;1.67;;;0.68;;
41043;SDS011;51680;49.806;18.774;2023-08-06T17:47:39;1.10;;;0.65;;
41043;SDS011;51680;49.806;18.774;2023-08-06T17:50:41;1.13;;;0.50;;
41043;SDS011;51680;49.806;18.774;2023-08-06T17:53:46;2.75;;;0.80;;
41043;SDS011;51680;49.806;18.774;2023-08-06T17:56:48;1.70;;;0.70;;
41043;SDS011;51680;49.806;18.774;2023-08-06T17:59:50;2.30;;;0.70;;
41043;SDS011;51680;49.806;18.774;2023-08-06T18:02:52;2.25;;;0.70;;
41043;SDS011;51680;49.806;18.774;2023-08-06T18:05:54;1.70;;;0.77;;
41043;SDS011;51680;49.806;18.774;2023-08-06T18:08:57;1.95;;;0.63;;
41043;SDS011;51680;49.806;18.774;2023-08-06T18:11:59;1.85;;;0.95;;
41043;SDS011;51680;49.806;18.774;2023-08-06T18:15:01;3.70;;;1.02;;
41043;SDS011;51680;49.806;18.774;2023-08-06T18:18:02;1.90;;;0.68;;